Tri Cities Airport
KPSC : now visible

Airfield :











YOU CAN JOIN US ON...

 
LOGIN :

Register | Disclaimer

   EN    FR    IT 

 









Legend :    VFR   Marginal VFR   IFR   Intensive IFR   Very Intensive IFR
Visi :
Ceiling :
>= 8 km
>= 3000ft
5 to 8 km
1000 to 3000 ft
1500m to 5 km
500 to 1000 ft
800 to 1500m
200 to 500 ft
< 800m
< 200 ft
Symbols :   Thunderstorms  Fog  Heavy snow  Heavy precipitations  Wind > 20 kt






- Airport Elevation : 410 ft
- IATA code : PSC


KPSC - Tri Cities

CURRENT METAR :
  • 271253Z 24005KT 10SM BKN100 OVC120 21/11 A2975 RMK AO2 SLP070 T02110111

EXPIRED METARs :
  • 271153Z AUTO 25004KT 10SM SCT100 21/10 A2975 RMK AO2 SLP071 T02060100 10233 20156 50002
  • 271053Z AUTO 24013KT 10SM OVC100 22/11 A2976 RMK AO2 SLP074 T02170106

TAF KPSC
Valid from the 27 at 12:00 until the 28 at 12:00 UTC


271120Z 2712/2812 23010KT P6SM BKN100 BKN250
TEMPO 2718/2722 BKN070 BKN100
FM272200 26011KT P6SM -RA OVC060
FM280400 23013KT P6SM VCSH OVC060
FM280600 22011KT P6SM -RA OVC050
FM280800 22014G21KT P6SM VCSH OVC100
KZSE FIR / North America



MET'MAP, your aeronautical weather chart ! - Copyright ORBIFLY December 2007 - Disclaimer

ORBIFLY MET'MAP TEAM :

Programming & Development : Alexandra Zaïnal
Concept & original design : Baudouin d'Aumeries
Assistance for programming : Marc-Olivier Méhu
Technical & hardware support : Manuel Goepfert

Contact : metmap@orbifly.com




SOURCES & CREDITS :

   NOAA       Earth
Advisory